sensor_id;sensor_type;location;lat;lon;timestamp;pressure;altitude;pressure_sealevel;temperature;humidity
56270;BME280;42176;43.240;27.880;2023-10-19T00:00:21;100374.88;;;9.94;100.00
56270;BME280;42176;43.240;27.880;2023-10-19T00:02:21;100366.09;;;9.88;100.00
56270;BME280;42176;43.240;27.880;2023-10-19T00:04:24;100371.44;;;9.85;100.00
56270;BME280;42176;43.240;27.880;2023-10-19T00:06:24;100363.53;;;9.84;100.00
56270;BME280;42176;43.240;27.880;2023-10-19T00:08:25;100364.44;;;9.81;100.00
56270;BME280;42176;43.240;27.880;2023-10-19T00:10:26;100358.25;;;9.82;100.00
56270;BME280;42176;43.240;27.880;2023-10-19T00:12:33;100354.69;;;9.85;100.00
56270;BME280;42176;43.240;27.880;2023-10-19T00:14:34;100352.94;;;9.82;100.00
56270;BME280;42176;43.240;27.880;2023-10-19T00:16:35;100355.59;;;9.82;100.00
56270;BME280;42176;43.240;27.880;2023-10-19T00:18:36;100357.34;;;9.83;100.00
56270;BME280;42176;43.240;27.880;2023-10-19T00:20:36;100350.34;;;9.81;100.00
56270;BME280;42176;43.240;27.880;2023-10-19T00:22:49;100352.13;;;9.80;100.00
56270;BME280;42176;43.240;27.880;2023-10-19T00:24:49;100352.16;;;9.77;100.00
56270;BME280;42176;43.240;27.880;2023-10-19T00:26:50;100359.13;;;9.81;100.00
56270;BME280;42176;43.240;27.880;2023-10-19T00:28:55;100356.56;;;9.78;100.00
56270;BME280;42176;43.240;27.880;2023-10-19T00:30:56;100353.06;;;9.74;100.00
56270;BME280;42176;43.240;27.880;2023-10-19T00:33:04;100353.09;;;9.73;100.00
56270;BME280;42176;43.240;27.880;2023-10-19T00:35:06;100353.06;;;9.74;100.00
56270;BME280;42176;43.240;27.880;2023-10-19T00:37:21;100352.22;;;9.74;100.00
56270;BME280;42176;43.240;27.880;2023-10-19T00:39:27;100356.69;;;9.69;100.00
56270;BME280;42176;43.240;27.880;2023-10-19T00:41:27;100348.78;;;9.67;100.00
56270;BME280;42176;43.240;27.880;2023-10-19T00:43:30;100349.69;;;9.66;100.00
56270;BME280;42176;43.240;27.880;2023-10-19T00:45:34;100350.53;;;9.67;100.00
56270;BME280;42176;43.240;27.880;2023-10-19T00:47:40;100347.94;;;9.65;100.00
56270;BME280;42176;43.240;27.880;2023-10-19T00:49:40;100347.06;;;9.65;100.00
56270;BME280;42176;43.240;27.880;2023-10-19T00:51:47;100345.34;;;9.59;100.00
56270;BME280;42176;43.240;27.880;2023-10-19T00:53:55;100338.34;;;9.56;100.00
56270;BME280;42176;43.240;27.880;2023-10-19T00:55:57;100340.06;;;9.60;100.00
56270;BME280;42176;43.240;27.880;2023-10-19T00:58:00;100343.56;;;9.63;100.00
56270;BME280;42176;43.240;27.880;2023-10-19T01:00:10;100272.72;;;9.19;100.00
56270;BME280;42176;43.240;27.880;2023-10-19T01:02:21;100339.25;;;9.55;100.00
56270;BME280;42176;43.240;27.880;2023-10-19T01:04:22;100326.16;;;9.46;100.00
56270;BME280;42176;43.240;27.880;2023-10-19T01:06:32;100348.94;;;9.56;100.00
56270;BME280;42176;43.240;27.880;2023-10-19T01:08:33;100346.28;;;9.56;100.00
56270;BME280;42176;43.240;27.880;2023-10-19T01:10:41;100338.34;;;9.56;100.00
56270;BME280;42176;43.240;27.880;2023-10-19T01:12:45;100345.38;;;9.57;100.00
56270;BME280;42176;43.240;27.880;2023-10-19T01:15:00;100348.16;;;9.50;100.00
56270;BME280;42176;43.240;27.880;2023-10-19T01:17:02;100334.13;;;9.43;100.00
56270;BME280;42176;43.240;27.880;2023-10-19T01:19:03;100342.94;;;9.45;100.00
56270;BME280;42176;43.240;27.880;2023-10-19T01:21:06;100349.06;;;9.47;100.00
56270;BME280;42176;43.240;27.880;2023-10-19T01:23:08;100331.31;;;9.55;100.00
56270;BME280;42176;43.240;27.880;2023-10-19T01:25:09;100339.19;;;9.58;100.00
56270;BME280;42176;43.240;27.880;2023-10-19T01:27:10;100340.03;;;9.64;100.00
56270;BME280;42176;43.240;27.880;2023-10-19T01:29:11;100338.16;;;9.69;100.00
56270;BME280;42176;43.240;27.880;2023-10-19T01:31:21;100331.03;;;9.74;100.00
56270;BME280;42176;43.240;27.880;2023-10-19T01:33:30;100328.34;;;9.75;100.00
56270;BME280;42176;43.240;27.880;2023-10-19T01:35:31;100323.94;;;9.76;100.00
56270;BME280;42176;43.240;27.880;2023-10-19T01:37:51;100330.09;;;9.77;100.00
56270;BME280;42176;43.240;27.880;2023-10-19T01:39:52;100320.44;;;9.74;100.00
56270;BME280;42176;43.240;27.880;2023-10-19T01:41:52;100325.69;;;9.77;100.00
56270;BME280;42176;43.240;27.880;2023-10-19T01:43:54;100321.25;;;9.78;100.00
56270;BME280;42176;43.240;27.880;2023-10-19T01:45:54;100317.75;;;9.77;100.00
56270;BME280;42176;43.240;27.880;2023-10-19T01:47:55;100327.44;;;9.78;100.00
56270;BME280;42176;43.240;27.880;2023-10-19T01:49:55;100323.09;;;9.74;100.00
56270;BME280;42176;43.240;27.880;2023-10-19T01:51:56;100320.47;;;9.71;100.00
56270;BME280;42176;43.240;27.880;2023-10-19T01:53:57;100322.28;;;9.69;100.00
56270;BME280;42176;43.240;27.880;2023-10-19T01:55:57;100325.00;;;9.64;100.00
56270;BME280;42176;43.240;27.880;2023-10-19T01:57:58;100321.53;;;9.59;100.00
56270;BME280;42176;43.240;27.880;2023-10-19T01:59:58;100294.53;;;9.37;100.00
56270;BME280;42176;43.240;27.880;2023-10-19T02:01:59;100325.19;;;9.52;100.00
56270;BME280;42176;43.240;27.880;2023-10-19T02:04:03;100327.00;;;9.47;100.00
56270;BME280;42176;43.240;27.880;2023-10-19T02:06:04;100325.22;;;9.49;100.00
56270;BME280;42176;43.240;27.880;2023-10-19T02:08:10;100326.03;;;9.52;100.00
56270;BME280;42176;43.240;27.880;2023-10-19T02:10:11;100326.00;;;9.55;100.00
56270;BME280;42176;43.240;27.880;2023-10-19T02:12:12;100331.31;;;9.55;100.00
56270;BME280;42176;43.240;27.880;2023-10-19T02:14:13;100332.13;;;9.59;100.00
56270;BME280;42176;43.240;27.880;2023-10-19T02:16:14;100329.47;;;9.60;100.00
56270;BME280;42176;43.240;27.880;2023-10-19T02:18:16;100331.22;;;9.62;100.00
56270;BME280;42176;43.240;27.880;2023-10-19T02:20:17;100334.72;;;9.64;100.00
56270;BME280;42176;43.240;27.880;2023-10-19T02:22:18;100331.22;;;9.62;100.00
56270;BME280;42176;43.240;27.880;2023-10-19T02:24:19;100325.97;;;9.58;100.00
56270;BME280;42176;43.240;27.880;2023-10-19T02:26:20;100327.72;;;9.59;100.00
56270;BME280;42176;43.240;27.880;2023-10-19T02:28:23;100327.78;;;9.53;100.00
56270;BME280;42176;43.240;27.880;2023-10-19T02:30:30;100324.25;;;9.54;100.00
56270;BME280;42176;43.240;27.880;2023-10-19T02:32:31;100327.72;;;9.59;100.00
56270;BME280;42176;43.240;27.880;2023-10-19T02:34:33;100303.97;;;9.53;100.00
56270;BME280;42176;43.240;27.880;2023-10-19T02:36:35;100321.50;;;9.62;100.00
56270;BME280;42176;43.240;27.880;2023-10-19T02:38:37;100328.56;;;9.62;100.00
56270;BME280;42176;43.240;27.880;2023-10-19T02:40:38;100338.19;;;9.66;100.00
56270;BME280;42176;43.240;27.880;2023-10-19T02:42:38;100318.72;;;9.70;100.00
56270;BME280;42176;43.240;27.880;2023-10-19T02:44:39;100320.47;;;9.71;100.00
56270;BME280;42176;43.240;27.880;2023-10-19T02:46:39;100316.03;;;9.73;100.00
56270;BME280;42176;43.240;27.880;2023-10-19T02:48:41;100320.47;;;9.71;100.00
56270;BME280;42176;43.240;27.880;2023-10-19T02:50:44;100315.22;;;9.68;100.00
56270;BME280;42176;43.240;27.880;2023-10-19T02:52:45;100325.00;;;9.64;100.00
56270;BME280;42176;43.240;27.880;2023-10-19T02:54:46;100317.91;;;9.66;100.00
56270;BME280;42176;43.240;27.880;2023-10-19T02:56:47;100297.75;;;9.57;100.00
56270;BME280;42176;43.240;27.880;2023-10-19T02:58:49;100314.41;;;9.64;100.00
56270;BME280;42176;43.240;27.880;2023-10-19T03:00:50;100318.78;;;9.68;100.00
56270;BME280;42176;43.240;27.880;2023-10-19T03:02:52;100311.69;;;9.69;100.00
56270;BME280;42176;43.240;27.880;2023-10-19T03:04:53;100313.56;;;9.64;100.00
56270;BME280;42176;43.240;27.880;2023-10-19T03:06:54;100300.44;;;9.54;100.00
56270;BME280;42176;43.240;27.880;2023-10-19T03:08:56;100303.09;;;9.54;100.00
56270;BME280;42176;43.240;27.880;2023-10-19T03:11:01;100302.19;;;9.57;100.00
56270;BME280;42176;43.240;27.880;2023-10-19T03:13:04;100311.03;;;9.56;100.00
56270;BME280;42176;43.240;27.880;2023-10-19T03:15:06;100297.75;;;9.57;100.00
56270;BME280;42176;43.240;27.880;2023-10-19T03:17:07;100304.75;;;9.62;100.00
56270;BME280;42176;43.240;27.880;2023-10-19T03:19:09;100296.81;;;9.62;100.00
56270;BME280;42176;43.240;27.880;2023-10-19T03:21:09;100302.06;;;9.65;100.00
56270;BME280;42176;43.240;27.880;2023-10-19T03:23:11;100302.88;;;9.67;100.00
56270;BME280;42176;43.240;27.880;2023-10-19T03:25:14;100288.06;;;9.56;100.00
56270;BME280;42176;43.240;27.880;2023-10-19T03:27:35;100297.59;;;9.67;100.00
56270;BME280;42176;43.240;27.880;2023-10-19T03:29:36;100297.59;;;9.67;100.00
56270;BME280;42176;43.240;27.880;2023-10-19T03:31:39;100294.91;;;9.70;100.00
56270;BME280;42176;43.240;27.880;2023-10-19T03:33:46;100290.47;;;9.72;100.00
56270;BME280;42176;43.240;27.880;2023-10-19T03:35:56;100288.69;;;9.74;100.00
56270;BME280;42176;43.240;27.880;2023-10-19T03:37:58;100292.25;;;9.70;100.00
56270;BME280;42176;43.240;27.880;2023-10-19T03:40:08;100294.91;;;9.71;100.00
56270;BME280;42176;43.240;27.880;2023-10-19T03:42:11;100296.59;;;9.75;100.00
56270;BME280;42176;43.240;27.880;2023-10-19T03:44:14;100290.44;;;9.73;100.00
56270;BME280;42176;43.240;27.880;2023-10-19T03:46:24;100290.50;;;9.69;100.00
56270;BME280;42176;43.240;27.880;2023-10-19T03:48:37;100285.22;;;9.69;100.00
56270;BME280;42176;43.240;27.880;2023-10-19T03:50:39;100285.19;;;9.72;100.00
56270;BME280;42176;43.240;27.880;2023-10-19T03:52:39;100289.59;;;9.71;100.00
56270;BME280;42176;43.240;27.880;2023-10-19T03:54:40;100287.88;;;9.69;100.00
56270;BME280;42176;43.240;27.880;2023-10-19T03:56:42;100286.97;;;9.70;100.00
56270;BME280;42176;43.240;27.880;2023-10-19T03:58:43;100286.19;;;9.65;100.00
56270;BME280;42176;43.240;27.880;2023-10-19T04:00:47;100287.84;;;9.70;100.00
56270;BME280;42176;43.240;27.880;2023-10-19T04:02:52;100283.47;;;9.68;100.00
56270;BME280;42176;43.240;27.880;2023-10-19T04:04:58;100280.03;;;9.63;100.00
56270;BME280;42176;43.240;27.880;2023-10-19T04:07:01;100276.50;;;9.64;100.00
56270;BME280;42176;43.240;27.880;2023-10-19T04:09:11;100275.53;;;9.68;100.00
56270;BME280;42176;43.240;27.880;2023-10-19T04:11:15;100293.03;;;9.77;100.00
56270;BME280;42176;43.240;27.880;2023-10-19T04:13:21;100288.63;;;9.77;100.00
56270;BME280;42176;43.240;27.880;2023-10-19T04:15:22;100278.00;;;9.79;100.00
56270;BME280;42176;43.240;27.880;2023-10-19T04:17:23;100283.22;;;9.83;100.00
56270;BME280;42176;43.240;27.880;2023-10-19T04:19:24;100292.00;;;9.85;100.00
56270;BME280;42176;43.240;27.880;2023-10-19T04:21:24;100285.72;;;9.93;100.00
56270;BME280;42176;43.240;27.880;2023-10-19T04:23:25;100277.81;;;9.89;100.00
56270;BME280;42176;43.240;27.880;2023-10-19T04:25:27;100283.94;;;9.95;100.00
56270;BME280;42176;43.240;27.880;2023-10-19T04:27:29;100285.78;;;9.89;100.00
56270;BME280;42176;43.240;27.880;2023-10-19T04:29:32;100278.81;;;9.84;100.00
56270;BME280;42176;43.240;27.880;2023-10-19T04:31:32;100270.84;;;9.85;100.00
56270;BME280;42176;43.240;27.880;2023-10-19T04:33:33;100283.03;;;9.96;100.00
56270;BME280;42176;43.240;27.880;2023-10-19T04:35:37;100267.19;;;9.93;100.00
56270;BME280;42176;43.240;27.880;2023-10-19T04:37:42;100285.44;;;10.10;100.00
56270;BME280;42176;43.240;27.880;2023-10-19T04:39:42;100290.63;;;10.16;100.00
56270;BME280;42176;43.240;27.880;2023-10-19T04:41:43;100286.19;;;10.16;100.00
56270;BME280;42176;43.240;27.880;2023-10-19T04:43:44;100298.38;;;10.27;100.00
56270;BME280;42176;43.240;27.880;2023-10-19T04:45:50;100299.94;;;10.37;100.00
56270;BME280;42176;43.240;27.880;2023-10-19T04:47:51;100286.69;;;10.39;100.00
56270;BME280;42176;43.240;27.880;2023-10-19T04:49:52;100299.75;;;10.49;100.00
56270;BME280;42176;43.240;27.880;2023-10-19T04:51:53;100294.41;;;10.53;100.00
56270;BME280;42176;43.240;27.880;2023-10-19T04:53:54;100305.69;;;10.62;100.00
56270;BME280;42176;43.240;27.880;2023-10-19T04:55:55;100304.59;;;10.74;100.00
56270;BME280;42176;43.240;27.880;2023-10-19T04:57:56;100291.19;;;10.80;100.00
56270;BME280;42176;43.240;27.880;2023-10-19T04:59:57;100305.03;;;10.95;100.00
56270;BME280;42176;43.240;27.880;2023-10-19T05:01:57;100299.56;;;11.04;100.00
56270;BME280;42176;43.240;27.880;2023-10-19T05:03:58;100297.56;;;11.14;100.00
56270;BME280;42176;43.240;27.880;2023-10-19T05:05:58;100306.97;;;11.29;100.00
56270;BME280;42176;43.240;27.880;2023-10-19T05:07:59;100301.38;;;11.41;100.00
56270;BME280;42176;43.240;27.880;2023-10-19T05:09:59;100307.34;;;11.51;100.00
56270;BME280;42176;43.240;27.880;2023-10-19T05:12:00;100306.19;;;11.63;100.00
56270;BME280;42176;43.240;27.880;2023-10-19T05:14:01;100303.91;;;11.84;100.00
56270;BME280;42176;43.240;27.880;2023-10-19T05:16:02;100301.28;;;12.20;100.00
56270;BME280;42176;43.240;27.880;2023-10-19T05:18:02;100306.09;;;12.72;100.00
56270;BME280;42176;43.240;27.880;2023-10-19T05:20:05;100301.78;;;12.99;100.00
56270;BME280;42176;43.240;27.880;2023-10-19T05:22:07;100302.34;;;13.40;100.00
56270;BME280;42176;43.240;27.880;2023-10-19T05:24:08;100297.53;;;13.80;100.00
56270;BME280;42176;43.240;27.880;2023-10-19T05:26:09;100296.91;;;14.26;100.00
56270;BME280;42176;43.240;27.880;2023-10-19T05:28:09;100303.41;;;14.69;100.00
56270;BME280;42176;43.240;27.880;2023-10-19T05:30:10;100305.13;;;14.96;100.00
56270;BME280;42176;43.240;27.880;2023-10-19T05:32:11;100299.53;;;15.26;100.00
56270;BME280;42176;43.240;27.880;2023-10-19T05:34:11;100309.53;;;15.43;100.00
56270;BME280;42176;43.240;27.880;2023-10-19T05:36:12;100308.00;;;15.59;100.00
56270;BME280;42176;43.240;27.880;2023-10-19T05:38:15;100298.09;;;15.85;99.91
56270;BME280;42176;43.240;27.880;2023-10-19T05:40:16;100301.06;;;16.00;98.09
56270;BME280;42176;43.240;27.880;2023-10-19T05:42:18;100306.03;;;15.87;98.31
56270;BME280;42176;43.240;27.880;2023-10-19T05:44:18;100305.81;;;15.93;98.71
56270;BME280;42176;43.240;27.880;2023-10-19T05:46:19;100305.88;;;16.12;97.34
56270;BME280;42176;43.240;27.880;2023-10-19T05:48:22;100289.31;;;16.24;96.21
56270;BME280;42176;43.240;27.880;2023-10-19T05:50:24;100305.75;;;16.56;95.19
56270;BME280;42176;43.240;27.880;2023-10-19T05:52:25;100302.09;;;16.99;92.01
56270;BME280;42176;43.240;27.880;2023-10-19T05:54:26;100305.00;;;17.52;87.47
56270;BME280;42176;43.240;27.880;2023-10-19T05:56:28;100296.63;;;18.14;83.41
56270;BME280;42176;43.240;27.880;2023-10-19T05:58:28;100305.31;;;18.87;78.41
56270;BME280;42176;43.240;27.880;2023-10-19T06:00:29;100298.38;;;19.65;72.34
56270;BME280;42176;43.240;27.880;2023-10-19T06:02:29;100297.28;;;20.61;66.26
56270;BME280;42176;43.240;27.880;2023-10-19T06:04:30;100303.31;;;21.51;61.09
56270;BME280;42176;43.240;27.880;2023-10-19T06:06:32;100287.56;;;22.13;55.92
56270;BME280;42176;43.240;27.880;2023-10-19T06:08:32;100295.47;;;22.56;51.66
56270;BME280;42176;43.240;27.880;2023-10-19T06:10:35;100300.94;;;23.06;50.83
56270;BME280;42176;43.240;27.880;2023-10-19T06:12:39;100310.91;;;23.56;50.21
56270;BME280;42176;43.240;27.880;2023-10-19T06:14:39;100299.81;;;24.21;49.07
56270;BME280;42176;43.240;27.880;2023-10-19T06:16:40;100307.84;;;24.81;46.36
56270;BME280;42176;43.240;27.880;2023-10-19T06:18:41;100314.47;;;25.56;43.31
56270;BME280;42176;43.240;27.880;2023-10-19T06:20:44;100298.56;;;26.49;40.36
56270;BME280;42176;43.240;27.880;2023-10-19T06:22:48;100304.25;;;27.19;39.68
56270;BME280;42176;43.240;27.880;2023-10-19T06:24:51;100308.00;;;27.79;37.61
56270;BME280;42176;43.240;27.880;2023-10-19T06:26:52;100307.59;;;28.23;36.40
56270;BME280;42176;43.240;27.880;2023-10-19T06:28:53;100304.22;;;28.68;34.87
56270;BME280;42176;43.240;27.880;2023-10-19T06:30:58;100304.56;;;29.41;34.28
56270;BME280;42176;43.240;27.880;2023-10-19T06:33:00;100305.13;;;29.62;33.66
56270;BME280;42176;43.240;27.880;2023-10-19T06:35:01;100303.81;;;29.85;32.09
56270;BME280;42176;43.240;27.880;2023-10-19T06:37:02;100303.09;;;30.37;32.31
56270;BME280;42176;43.240;27.880;2023-10-19T06:39:04;100298.09;;;30.50;31.15
56270;BME280;42176;43.240;27.880;2023-10-19T06:41:13;100302.16;;;30.46;30.19
56270;BME280;42176;43.240;27.880;2023-10-19T06:43:14;100308.16;;;30.50;30.48
56270;BME280;42176;43.240;27.880;2023-10-19T06:45:15;100306.50;;;30.75;29.87
56270;BME280;42176;43.240;27.880;2023-10-19T06:47:16;100298.56;;;30.90;29.71
56270;BME280;42176;43.240;27.880;2023-10-19T06:49:17;100302.63;;;30.60;29.38
56270;BME280;42176;43.240;27.880;2023-10-19T06:51:17;100304.03;;;30.64;29.68
56270;BME280;42176;43.240;27.880;2023-10-19T06:53:18;100301.03;;;30.75;29.21
56270;BME280;42176;43.240;27.880;2023-10-19T06:55:18;100309.31;;;30.92;28.78
56270;BME280;42176;43.240;27.880;2023-10-19T06:57:23;100305.59;;;31.01;29.15
56270;BME280;42176;43.240;27.880;2023-10-19T06:59:23;100304.75;;;31.35;28.41
56270;BME280;42176;43.240;27.880;2023-10-19T07:01:24;100306.09;;;31.31;28.06
56270;BME280;42176;43.240;27.880;2023-10-19T07:03:29;100302.28;;;31.16;28.85
56270;BME280;42176;43.240;27.880;2023-10-19T07:05:30;100300.69;;;31.48;27.96
56270;BME280;42176;43.240;27.880;2023-10-19T07:07:31;100297.97;;;31.56;27.74
56270;BME280;42176;43.240;27.880;2023-10-19T07:09:31;100299.94;;;31.80;28.28
56270;BME280;42176;43.240;27.880;2023-10-19T07:11:32;100294.31;;;31.90;27.94
56270;BME280;42176;43.240;27.880;2023-10-19T07:13:35;100298.25;;;32.20;27.58
56270;BME280;42176;43.240;27.880;2023-10-19T07:15:36;100293.28;;;32.16;27.30
56270;BME280;42176;43.240;27.880;2023-10-19T07:17:36;100296.97;;;31.65;27.58
56270;BME280;42176;43.240;27.880;2023-10-19T07:19:42;100296.97;;;31.65;28.31
56270;BME280;42176;43.240;27.880;2023-10-19T07:21:43;100288.34;;;32.28;27.49
56270;BME280;42176;43.240;27.880;2023-10-19T07:23:48;100295.13;;;32.73;26.82
56270;BME280;42176;43.240;27.880;2023-10-19T07:25:53;100279.91;;;32.54;27.04
56270;BME280;42176;43.240;27.880;2023-10-19T07:27:59;100286.09;;;32.23;27.33
56270;BME280;42176;43.240;27.880;2023-10-19T07:30:01;100290.91;;;32.38;27.20
56270;BME280;42176;43.240;27.880;2023-10-19T07:32:05;100283.00;;;32.10;27.40
56270;BME280;42176;43.240;27.880;2023-10-19T07:34:06;100285.06;;;31.91;27.67
56270;BME280;42176;43.240;27.880;2023-10-19T07:36:13;100282.22;;;31.66;28.26
56270;BME280;42176;43.240;27.880;2023-10-19T07:38:15;100274.66;;;31.43;28.36
56270;BME280;42176;43.240;27.880;2023-10-19T07:40:17;100273.66;;;31.53;28.65
56270;BME280;42176;43.240;27.880;2023-10-19T07:42:18;100272.63;;;31.11;29.05
56270;BME280;42176;43.240;27.880;2023-10-19T07:44:18;100266.16;;;30.77;29.53
56270;BME280;42176;43.240;27.880;2023-10-19T07:46:19;100276.63;;;31.17;29.09
56270;BME280;42176;43.240;27.880;2023-10-19T07:48:19;100274.06;;;30.89;29.17
56270;BME280;42176;43.240;27.880;2023-10-19T07:50:20;100273.66;;;30.75;30.22
56270;BME280;42176;43.240;27.880;2023-10-19T07:52:22;100269.00;;;30.23;29.96
56270;BME280;42176;43.240;27.880;2023-10-19T07:54:23;100263.06;;;28.99;31.99
56270;BME280;42176;43.240;27.880;2023-10-19T07:56:23;100264.28;;;27.71;33.63
56270;BME280;42176;43.240;27.880;2023-10-19T07:58:24;100260.09;;;27.76;34.59
56270;BME280;42176;43.240;27.880;2023-10-19T08:00:24;100254.50;;;28.47;33.86
56270;BME280;42176;43.240;27.880;2023-10-19T08:02:25;100263.13;;;28.32;33.47
56270;BME280;42176;43.240;27.880;2023-10-19T08:04:25;100261.13;;;28.05;33.65
56270;BME280;42176;43.240;27.880;2023-10-19T08:06:26;100254.81;;;27.65;34.56
56270;BME280;42176;43.240;27.880;2023-10-19T08:08:26;100259.41;;;27.84;34.49
56270;BME280;42176;43.240;27.880;2023-10-19T08:10:34;100256.25;;;27.59;34.61
56270;BME280;42176;43.240;27.880;2023-10-19T08:12:34;100256.56;;;27.86;34.43
56270;BME280;42176;43.240;27.880;2023-10-19T08:14:36;100258.25;;;27.67;35.33
56270;BME280;42176;43.240;27.880;2023-10-19T08:16:37;100261.25;;;27.54;34.79
56270;BME280;42176;43.240;27.880;2023-10-19T08:18:37;100258.78;;;27.51;34.08
56270;BME280;42176;43.240;27.880;2023-10-19T08:20:38;100255.97;;;27.12;34.54
56270;BME280;42176;43.240;27.880;2023-10-19T08:22:38;100250.13;;;27.26;34.22
56270;BME280;42176;43.240;27.880;2023-10-19T08:24:40;100245.75;;;26.94;35.23
56270;BME280;42176;43.240;27.880;2023-10-19T08:26:44;100250.63;;;26.48;35.70
56270;BME280;42176;43.240;27.880;2023-10-19T08:28:48;100237.44;;;26.01;34.63
56270;BME280;42176;43.240;27.880;2023-10-19T08:30:50;100236.94;;;25.75;34.08
56270;BME280;42176;43.240;27.880;2023-10-19T08:33:11;100242.72;;;25.49;35.06
56270;BME280;42176;43.240;27.880;2023-10-19T08:35:15;100247.13;;;25.38;35.63
56270;BME280;42176;43.240;27.880;2023-10-19T08:37:16;100244.56;;;25.37;35.92
56270;BME280;42176;43.240;27.880;2023-10-19T08:39:16;100252.59;;;25.27;36.06
56270;BME280;42176;43.240;27.880;2023-10-19T08:41:18;100255.09;;;24.85;35.85
56270;BME280;42176;43.240;27.880;2023-10-19T08:43:19;100236.22;;;24.02;37.57
56270;BME280;42176;43.240;27.880;2023-10-19T08:45:19;100245.44;;;23.26;39.95
56270;BME280;42176;43.240;27.880;2023-10-19T08:47:21;100250.69;;;22.39;41.57
56270;BME280;42176;43.240;27.880;2023-10-19T08:49:25;100239.53;;;21.23;43.96
56270;BME280;42176;43.240;27.880;2023-10-19T08:51:29;100250.06;;;20.84;44.78
56270;BME280;42176;43.240;27.880;2023-10-19T08:53:29;100228.34;;;20.13;46.50
56270;BME280;42176;43.240;27.880;2023-10-19T08:55:31;100244.38;;;19.84;48.12
56270;BME280;42176;43.240;27.880;2023-10-19T08:57:34;100228.09;;;19.71;49.83
56270;BME280;42176;43.240;27.880;2023-10-19T08:59:36;100235.03;;;19.91;50.59
56270;BME280;42176;43.240;27.880;2023-10-19T09:01:38;100234.84;;;19.95;50.53
56270;BME280;42176;43.240;27.880;2023-10-19T09:03:39;100240.59;;;19.88;52.37
56270;BME280;42176;43.240;27.880;2023-10-19T09:05:41;100239.19;;;19.81;53.50
56270;BME280;42176;43.240;27.880;2023-10-19T09:07:41;100236.28;;;19.70;55.77
56270;BME280;42176;43.240;27.880;2023-10-19T09:09:42;100224.09;;;19.78;57.40
56270;BME280;42176;43.240;27.880;2023-10-19T09:11:43;100235.16;;;19.74;57.59
56270;BME280;42176;43.240;27.880;2023-10-19T09:13:48;100232.44;;;19.74;57.79
56270;BME280;42176;43.240;27.880;2023-10-19T09:15:50;100232.13;;;19.48;59.95
56270;BME280;42176;43.240;27.880;2023-10-19T09:17:53;100234.13;;;19.60;60.08
56270;BME280;42176;43.240;27.880;2023-10-19T09:19:55;100214.06;;;19.66;60.50
56270;BME280;42176;43.240;27.880;2023-10-19T09:21:56;100235.09;;;19.59;63.92
56270;BME280;42176;43.240;27.880;2023-10-19T09:23:59;100214.84;;;19.22;68.00
56270;BME280;42176;43.240;27.880;2023-10-19T09:26:01;100209.97;;;18.96;70.59
56270;BME280;42176;43.240;27.880;2023-10-19T09:28:05;100217.25;;;18.94;69.15
56270;BME280;42176;43.240;27.880;2023-10-19T09:30:08;100224.13;;;18.66;75.43
56270;BME280;42176;43.240;27.880;2023-10-19T09:32:09;100216.66;;;18.71;75.58
56270;BME280;42176;43.240;27.880;2023-10-19T09:34:12;100211.28;;;18.55;77.97
56270;BME280;42176;43.240;27.880;2023-10-19T09:36:13;100216.03;;;18.33;84.42
56270;BME280;42176;43.240;27.880;2023-10-19T09:38:15;100198.00;;;18.19;87.08
56270;BME280;42176;43.240;27.880;2023-10-19T09:40:16;100213.56;;;18.12;89.24
56270;BME280;42176;43.240;27.880;2023-10-19T09:42:17;100202.06;;;18.44;87.40
56270;BME280;42176;43.240;27.880;2023-10-19T09:44:21;100202.56;;;18.34;88.66
56270;BME280;42176;43.240;27.880;2023-10-19T09:46:31;100197.19;;;18.34;85.12
56270;BME280;42176;43.240;27.880;2023-10-19T09:48:32;100202.28;;;18.72;83.76
56270;BME280;42176;43.240;27.880;2023-10-19T09:50:36;100198.50;;;18.77;83.95
56270;BME280;42176;43.240;27.880;2023-10-19T09:52:37;100177.78;;;18.79;82.75
56270;BME280;42176;43.240;27.880;2023-10-19T09:54:52;100161.94;;;18.90;82.71
56270;BME280;42176;43.240;27.880;2023-10-19T09:57:01;100158.25;;;19.09;76.71
56270;BME280;42176;43.240;27.880;2023-10-19T09:59:17;100173.03;;;19.16;76.98
56270;BME280;42176;43.240;27.880;2023-10-19T10:01:22;100167.09;;;19.11;80.88
56270;BME280;42176;43.240;27.880;2023-10-19T10:03:46;100174.78;;;19.17;81.49
56270;BME280;42176;43.240;27.880;2023-10-19T10:05:47;100159.72;;;18.98;80.72
56270;BME280;42176;43.240;27.880;2023-10-19T10:10:17;100150.19;;;19.09;76.63
56270;BME280;42176;43.240;27.880;2023-10-19T10:12:23;100138.81;;;19.20;71.54
56270;BME280;42176;43.240;27.880;2023-10-19T10:14:25;100140.63;;;19.19;73.63
56270;BME280;42176;43.240;27.880;2023-10-19T10:16:29;100138.09;;;19.16;75.63
56270;BME280;42176;43.240;27.880;2023-10-19T10:18:31;100140.28;;;18.93;77.44
56270;BME280;42176;43.240;27.880;2023-10-19T10:20:31;100137.94;;;18.87;71.32
56270;BME280;42176;43.240;27.880;2023-10-19T10:22:32;100124.69;;;18.84;68.14
56270;BME280;42176;43.240;27.880;2023-10-19T10:24:32;100113.13;;;18.99;68.09
56270;BME280;42176;43.240;27.880;2023-10-19T10:26:57;100121.59;;;18.92;74.01
56270;BME280;42176;43.240;27.880;2023-10-19T10:29:14;100105.22;;;18.96;75.05
56270;BME280;42176;43.240;27.880;2023-10-19T10:31:21;100089.88;;;18.66;76.27
56270;BME280;42176;43.240;27.880;2023-10-19T10:33:44;100103.72;;;18.75;72.40